createdAt,value
2018-10-19T00:01:36.136Z,90.56
2018-10-19T00:02:36.304Z,90.63
2018-10-19T00:03:36.374Z,90.60
2018-10-19T00:04:36.517Z,90.64
2018-10-19T00:05:36.629Z,90.80
2018-10-19T00:06:36.685Z,90.84
2018-10-19T00:07:36.838Z,90.74
2018-10-19T00:08:36.935Z,90.66
2018-10-19T00:09:36.997Z,90.56
2018-10-19T00:10:37.079Z,90.41
2018-10-19T00:11:37.135Z,90.58
2018-10-19T00:12:37.315Z,90.62
2018-10-19T00:13:37.149Z,90.60
2018-10-19T00:14:37.860Z,90.50
2018-10-19T00:15:37.929Z,90.40
2018-10-19T00:16:37.990Z,90.43
2018-10-19T00:17:38.067Z,90.26
2018-10-19T00:18:38.148Z,90.21
2018-10-19T00:19:38.226Z,90.17
2018-10-19T00:20:38.302Z,90.08
2018-10-19T00:21:38.368Z,90.09
2018-10-19T00:22:38.444Z,90.13
2018-10-19T00:23:38.267Z,90.27
2018-10-19T00:24:38.827Z,90.24
2018-10-19T00:25:38.893Z,90.26
2018-10-19T00:26:39.160Z,90.25
2018-10-19T00:27:39.296Z,90.32
2018-10-19T00:28:39.297Z,90.53
2018-10-19T00:29:39.335Z,90.44
2018-10-19T00:30:39.484Z,90.60
2018-10-19T00:31:39.624Z,90.51
2018-10-19T00:32:39.453Z,90.49
2018-10-19T00:33:39.753Z,90.52
2018-10-19T00:34:40.092Z,90.57
2018-10-19T00:35:40.375Z,90.56
2018-10-19T00:36:40.669Z,90.67
2018-10-19T00:37:41.006Z,90.76
2018-10-19T00:38:41.235Z,90.87
2018-10-19T00:39:41.823Z,90.85
2018-10-19T00:40:41.785Z,91.06
2018-10-19T00:41:42.068Z,91.34
2018-10-19T00:42:42.327Z,91.24
2018-10-19T00:43:42.613Z,91.10
2018-10-19T00:44:42.889Z,91.17
2018-10-19T00:45:43.208Z,91.11
2018-10-19T00:46:43.465Z,91.39
2018-10-19T00:47:43.951Z,91.51
2018-10-19T00:48:44.232Z,91.56
2018-10-19T00:49:44.491Z,91.69
2018-10-19T00:50:44.733Z,91.68
2018-10-19T00:51:45.069Z,91.71
2018-10-19T00:52:45.340Z,91.75
2018-10-19T00:53:45.613Z,91.77
2018-10-19T00:54:46.173Z,92.08
2018-10-19T00:55:45.926Z,92.21
2018-10-19T00:56:46.205Z,91.91
2018-10-19T00:57:46.460Z,92.21
2018-10-19T00:58:46.723Z,92.23
2018-10-19T00:59:46.992Z,92.33
2018-10-19T01:00:47.251Z,92.40
2018-10-19T01:01:47.627Z,92.52
2018-10-19T01:02:47.889Z,92.94
2018-10-19T01:03:48.501Z,92.90
2018-10-19T01:04:48.646Z,92.82
2018-10-19T01:05:48.738Z,93.07
2018-10-19T01:06:48.885Z,92.84
2018-10-19T01:07:49.025Z,92.84
2018-10-19T01:08:49.182Z,92.95
2018-10-19T01:09:49.271Z,93.12
2018-10-19T01:10:49.391Z,93.07
2018-10-19T01:11:49.561Z,93.22
2018-10-19T01:12:49.717Z,93.49
2018-10-19T01:13:49.845Z,93.51
2018-10-19T01:14:49.985Z,93.62
2018-10-19T01:15:50.088Z,93.82
2018-10-19T01:16:50.327Z,93.81
2018-10-19T01:17:50.481Z,94.19
2018-10-19T01:18:50.744Z,94.02
2018-10-19T01:19:50.864Z,93.98
2018-10-19T01:20:51.011Z,93.92
2018-10-19T01:21:51.063Z,94.10
2018-10-19T01:22:51.214Z,93.98
2018-10-19T01:23:51.398Z,93.95
2018-10-19T01:24:51.460Z,94.08
2018-10-19T01:25:51.510Z,94.24
2018-10-19T01:26:51.575Z,94.36
2018-10-19T01:27:51.681Z,94.26
2018-10-19T01:28:51.724Z,94.60
2018-10-19T01:29:51.775Z,94.41
2018-10-19T01:30:51.929Z,94.50
2018-10-19T01:31:52.019Z,94.52
2018-10-19T01:32:52.147Z,94.40
2018-10-19T01:33:52.116Z,94.44
2018-10-19T01:34:52.692Z,94.74
2018-10-19T01:35:52.745Z,95.03
2018-10-19T01:36:52.834Z,94.87
2018-10-19T01:38:52.951Z,94.82
2018-10-19T01:39:52.977Z,94.91
2018-10-19T01:40:53.048Z,95.17
2018-10-19T01:41:53.121Z,95.04
2018-10-19T01:42:53.181Z,95.02
2018-10-19T01:43:52.950Z,95.46
2018-10-19T01:44:53.601Z,95.43
2018-10-19T01:45:53.666Z,95.67
2018-10-19T01:46:54.061Z,95.68
2018-10-19T01:47:54.374Z,95.73
2018-10-19T01:48:54.416Z,95.77
2018-10-19T01:49:54.692Z,95.86
2018-10-19T01:50:55.005Z,95.81
2018-10-19T01:51:55.214Z,95.98
2018-10-19T01:52:55.529Z,96.09
2018-10-19T01:53:55.865Z,96.27
2018-10-19T01:54:56.447Z,96.10
2018-10-19T01:55:56.218Z,96.08
2018-10-19T01:56:56.600Z,96.06
2018-10-19T01:57:56.829Z,96.08
2018-10-19T01:58:57.123Z,96.32
2018-10-19T01:59:57.377Z,96.35
2018-10-19T02:00:57.757Z,96.60
2018-10-19T02:01:58.098Z,96.85
2018-10-19T02:02:58.413Z,96.85
2018-10-19T02:03:58.636Z,96.83
2018-10-19T02:04:59.268Z,96.89
2018-10-19T02:05:59.021Z,97.27
2018-10-19T02:06:59.300Z,97.17
2018-10-19T02:07:59.586Z,97.32
2018-10-19T02:08:59.922Z,97.27
2018-10-19T02:10:00.143Z,97.40
2018-10-19T02:11:00.463Z,97.48
2018-10-19T02:12:00.707Z,97.56
2018-10-19T02:13:00.981Z,97.83
2018-10-19T02:14:01.279Z,97.99
2018-10-19T02:15:01.982Z,97.93
2018-10-19T02:16:02.110Z,97.99
2018-10-19T02:17:01.998Z,98.06
2018-10-19T02:18:02.148Z,98.13
2018-10-19T02:19:02.299Z,98.25
2018-10-19T02:20:02.554Z,98.22
2018-10-19T02:21:02.378Z,98.21
2018-10-19T02:22:02.541Z,98.31
2018-10-19T02:23:02.982Z,98.34
2018-10-19T02:24:03.033Z,98.48
2018-10-19T02:25:02.982Z,98.58
2018-10-19T02:26:02.874Z,98.54
2018-10-19T02:27:03.501Z,98.50
2018-10-19T02:28:03.603Z,98.47
2018-10-19T02:29:03.769Z,98.55
2018-10-19T02:30:03.923Z,98.56
2018-10-19T02:31:03.965Z,98.56
2018-10-19T02:32:04.106Z,98.55
2018-10-19T02:34:04.263Z,98.66
2018-10-19T02:35:04.381Z,98.73
2018-10-19T02:36:04.525Z,98.62
2018-10-19T02:37:04.647Z,98.58
2018-10-19T02:38:04.810Z,98.50
2018-10-19T02:39:05.088Z,98.38
2018-10-19T02:40:05.148Z,98.26
2018-10-19T02:41:05.570Z,98.13
2018-10-19T02:42:05.675Z,98.08
2018-10-19T02:43:05.768Z,97.95
2018-10-19T02:44:05.921Z,97.84
2018-10-19T02:45:06.143Z,97.78
2018-10-19T02:46:06.573Z,97.65
2018-10-19T02:47:06.721Z,97.53
2018-10-19T02:48:06.777Z,97.41
2018-10-19T02:49:06.977Z,97.29
2018-10-19T02:50:07.181Z,97.14
2018-10-19T02:51:07.550Z,97.07
2018-10-19T02:52:07.581Z,96.79
2018-10-19T02:53:07.754Z,96.74
2018-10-19T02:54:07.704Z,96.59
2018-10-19T02:55:08.022Z,96.44
2018-10-19T02:56:08.418Z,96.34
2018-10-19T02:57:08.600Z,96.23
2018-10-19T02:58:08.574Z,96.14
2018-10-19T02:59:08.803Z,96.03
2018-10-19T03:00:08.727Z,95.89
2018-10-19T03:01:08.562Z,95.76
2018-10-19T03:02:09.029Z,95.58
2018-10-19T03:03:09.475Z,95.45
2018-10-19T03:04:09.679Z,95.36
2018-10-19T03:05:10.096Z,95.33
2018-10-19T03:06:10.289Z,95.18
2018-10-19T03:07:10.556Z,95.01
2018-10-19T03:08:10.868Z,95.02
2018-10-19T03:09:11.163Z,94.98
2018-10-19T03:10:11.531Z,95.01
2018-10-19T03:11:11.826Z,95.02
2018-10-19T03:12:12.247Z,95.05
2018-10-19T03:13:12.511Z,95.07
2018-10-19T03:14:12.851Z,95.02
2018-10-19T03:15:13.526Z,94.90
2018-10-19T03:16:13.233Z,94.84
2018-10-19T03:17:13.737Z,94.87
2018-10-19T03:18:13.952Z,94.91
2018-10-19T03:19:14.348Z,94.96
2018-10-19T03:20:14.877Z,94.88
2018-10-19T03:21:14.762Z,94.89
2018-10-19T03:22:14.938Z,94.84
2018-10-19T03:23:15.236Z,94.75
2018-10-19T03:24:15.507Z,94.74
2018-10-19T03:25:16.242Z,94.76
2018-10-19T03:26:16.021Z,94.68
2018-10-19T03:27:16.405Z,94.63
2018-10-19T03:28:16.550Z,94.52
2018-10-19T03:29:16.941Z,94.46
2018-10-19T03:30:17.432Z,94.38
2018-10-19T03:31:17.262Z,94.28
2018-10-19T03:32:17.495Z,94.27
2018-10-19T03:33:17.749Z,94.26
2018-10-19T03:34:18.169Z,94.21
2018-10-19T03:35:18.895Z,94.20
2018-10-19T03:36:18.973Z,94.21
2018-10-19T03:37:19.125Z,94.15
2018-10-19T03:38:19.212Z,94.22
2018-10-19T03:39:19.356Z,94.22
2018-10-19T03:40:19.477Z,94.18
2018-10-19T03:41:19.612Z,94.18
2018-10-19T03:42:19.739Z,94.12
2018-10-19T03:43:19.846Z,94.16
2018-10-19T03:44:19.977Z,94.18
2018-10-19T03:45:20.128Z,94.21
2018-10-19T03:46:20.266Z,94.31
2018-10-19T03:47:20.522Z,94.42
2018-10-19T03:48:20.575Z,94.36
2018-10-19T03:49:20.905Z,94.32
2018-10-19T03:50:20.961Z,94.33
2018-10-19T03:51:21.041Z,94.33
2018-10-19T03:52:21.137Z,94.18
2018-10-19T03:53:21.276Z,94.21
2018-10-19T03:54:21.407Z,94.17
2018-10-19T03:55:21.562Z,94.17
2018-10-19T03:56:21.662Z,94.08
2018-10-19T03:57:21.780Z,94.10
2018-10-19T03:58:21.804Z,94.03
2018-10-19T03:59:21.930Z,94.17
2018-10-19T04:00:22.045Z,94.13
2018-10-19T04:01:22.147Z,94.06
2018-10-19T04:02:22.295Z,93.97
2018-10-19T04:03:22.373Z,93.93
2018-10-19T04:04:22.405Z,93.68
2018-10-19T04:05:22.486Z,93.47
2018-10-19T04:06:22.592Z,93.53
2018-10-19T04:07:22.668Z,93.36
2018-10-19T04:08:22.733Z,93.30
2018-10-19T04:09:22.815Z,93.35
2018-10-19T04:10:22.876Z,93.44
2018-10-19T04:11:22.934Z,93.40
2018-10-19T04:12:23.030Z,93.51
2018-10-19T04:13:23.107Z,93.64
2018-10-19T04:14:23.173Z,93.92
2018-10-19T04:15:23.236Z,93.98
2018-10-19T04:16:23.318Z,94.04
2018-10-19T04:17:23.400Z,94.43
2018-10-19T04:18:23.471Z,94.70
2018-10-19T04:19:23.551Z,95.11
2018-10-19T04:20:23.643Z,95.69
2018-10-19T04:21:23.724Z,95.78
2018-10-19T04:22:23.785Z,95.94
2018-10-19T04:23:23.894Z,96.23
2018-10-19T04:24:24.533Z,96.24
2018-10-19T04:25:24.733Z,96.48
2018-10-19T04:26:24.491Z,96.51
2018-10-19T04:27:24.845Z,96.60
2018-10-19T04:28:25.105Z,96.65
2018-10-19T04:29:25.374Z,96.66
2018-10-19T04:30:25.621Z,96.81
2018-10-19T04:31:25.884Z,96.81
2018-10-19T04:32:26.202Z,96.78
2018-10-19T04:33:26.544Z,96.91
2018-10-19T04:34:26.884Z,96.94
2018-10-19T04:35:27.453Z,97.00
2018-10-19T04:36:27.276Z,97.05
2018-10-19T04:37:27.619Z,96.97
2018-10-19T04:38:27.889Z,96.95
2018-10-19T04:39:28.153Z,96.90
2018-10-19T04:40:28.425Z,96.82
2018-10-19T04:41:28.778Z,96.80
2018-10-19T04:42:29.041Z,96.75
2018-10-19T04:43:29.328Z,96.71
2018-10-19T04:44:29.582Z,96.55
2018-10-19T04:45:30.175Z,96.50
2018-10-19T04:46:29.962Z,96.36
2018-10-19T04:47:30.256Z,96.29
2018-10-19T04:48:30.492Z,96.19
2018-10-19T04:49:30.750Z,96.02
2018-10-19T04:50:31.052Z,95.98
2018-10-19T04:51:31.336Z,95.90
2018-10-19T04:52:31.587Z,95.83
2018-10-19T04:53:31.885Z,95.73
2018-10-19T04:54:32.216Z,95.65
2018-10-19T04:55:32.807Z,95.49
2018-10-19T04:56:32.584Z,95.41
2018-10-19T04:57:32.843Z,95.53
2018-10-19T04:58:33.360Z,95.49
2018-10-19T04:59:33.325Z,95.44
2018-10-19T05:00:33.983Z,95.48
2018-10-19T05:01:34.112Z,95.51
2018-10-19T05:02:34.279Z,95.50
2018-10-19T05:03:34.437Z,95.52
2018-10-19T05:04:34.665Z,95.60
2018-10-19T05:05:34.705Z,95.61
2018-10-19T05:06:34.897Z,95.73
2018-10-19T05:07:34.993Z,95.74
2018-10-19T05:08:35.040Z,95.72
2018-10-19T05:09:35.180Z,95.72
2018-10-19T05:10:35.313Z,95.78
2018-10-19T05:11:35.479Z,95.74
2018-10-19T05:12:35.795Z,95.69
2018-10-19T05:13:35.917Z,95.57
2018-10-19T05:14:36.021Z,95.48
2018-10-19T05:15:36.094Z,95.42
2018-10-19T05:16:36.200Z,95.32
2018-10-19T05:17:36.193Z,95.38
2018-10-19T05:18:36.194Z,95.42
2018-10-19T05:19:36.240Z,95.34
2018-10-19T05:20:36.295Z,95.36
2018-10-19T05:21:36.364Z,95.35
2018-10-19T05:22:36.671Z,95.37
2018-10-19T05:23:36.909Z,95.39
2018-10-19T05:24:37.067Z,95.39
2018-10-19T05:25:37.093Z,95.51
2018-10-19T05:26:37.183Z,95.61
2018-10-19T05:27:37.279Z,95.73
2018-10-19T05:28:37.380Z,95.73
2018-10-19T05:29:37.462Z,95.82
2018-10-19T05:30:37.522Z,95.82
2018-10-19T05:31:37.597Z,95.90
2018-10-19T05:32:37.658Z,95.96
2018-10-19T05:33:37.843Z,95.95
2018-10-19T05:34:37.896Z,95.98
2018-10-19T05:35:37.984Z,96.27
2018-10-19T05:36:38.040Z,96.40
2018-10-19T05:37:38.103Z,96.31
2018-10-19T05:38:38.332Z,96.40
2018-10-19T05:39:38.393Z,96.31
2018-10-19T05:40:38.593Z,96.52
2018-10-19T05:41:38.665Z,96.92
2018-10-19T05:42:38.755Z,96.80
2018-10-19T05:43:39.316Z,97.08
2018-10-19T05:44:39.422Z,96.99
2018-10-19T05:45:39.192Z,97.21
2018-10-19T05:46:39.573Z,97.41
2018-10-19T05:47:39.864Z,97.33
2018-10-19T05:48:40.147Z,97.34
2018-10-19T05:49:40.449Z,97.44
2018-10-19T05:50:40.724Z,97.83
2018-10-19T05:51:41.236Z,98.07
2018-10-19T05:52:41.010Z,98.12
2018-10-19T05:53:41.270Z,98.25
2018-10-19T05:54:41.540Z,98.36
2018-10-19T05:55:42.102Z,98.19
2018-10-19T05:56:41.865Z,98.42
2018-10-19T05:57:42.151Z,98.71
2018-10-19T05:58:42.426Z,98.56
2018-10-19T05:59:42.706Z,98.66
2018-10-19T06:00:42.974Z,98.62
2018-10-19T06:01:43.255Z,98.74
2018-10-19T06:02:43.607Z,98.45
2018-10-19T06:03:43.788Z,98.72
2018-10-19T06:04:44.053Z,98.99
2018-10-19T06:05:44.338Z,99.07
2018-10-19T06:06:44.604Z,99.22
2018-10-19T06:07:44.872Z,99.33
2018-10-19T06:08:45.282Z,99.45
2018-10-19T06:09:45.761Z,99.51
2018-10-19T06:10:46.007Z,99.48
2018-10-19T06:11:46.486Z,99.35
2018-10-19T06:12:46.781Z,99.40
2018-10-19T06:13:47.139Z,99.57
2018-10-19T06:14:47.550Z,99.54
2018-10-19T06:15:47.993Z,99.65
2018-10-19T06:16:48.563Z,99.85
2018-10-19T06:17:48.626Z,100.00
2018-10-19T06:18:48.699Z,100.00
2018-10-19T06:19:48.791Z,100.00
2018-10-19T06:20:48.935Z,99.91
2018-10-19T06:21:48.999Z,100.00
2018-10-19T06:22:49.137Z,100.00
2018-10-19T06:23:49.309Z,100.00
2018-10-19T06:24:49.479Z,100.00
2018-10-19T06:25:49.660Z,100.00
2018-10-19T06:26:49.760Z,100.00
2018-10-19T06:27:49.904Z,100.00
2018-10-19T06:28:50.044Z,100.00
2018-10-19T06:29:50.231Z,100.00
2018-10-19T06:30:50.375Z,100.00
2018-10-19T06:31:50.517Z,100.00
2018-10-19T06:32:50.675Z,100.00
2018-10-19T06:33:50.952Z,100.00
2018-10-19T06:34:50.922Z,100.00
2018-10-19T06:35:51.134Z,100.00
2018-10-19T06:36:51.234Z,100.00
2018-10-19T06:37:51.301Z,100.00
2018-10-19T06:38:51.419Z,100.00
2018-10-19T06:39:51.507Z,100.00
2018-10-19T06:40:51.705Z,100.00
2018-10-19T06:41:51.749Z,100.00
2018-10-19T06:42:51.819Z,100.00
2018-10-19T06:43:51.954Z,100.00
2018-10-19T06:44:52.056Z,100.00
2018-10-19T06:45:52.169Z,100.00
2018-10-19T06:46:52.269Z,100.00
2018-10-19T06:47:52.361Z,100.00
2018-10-19T06:48:52.482Z,100.00
2018-10-19T06:49:52.519Z,100.00
2018-10-19T06:50:52.572Z,100.00
2018-10-19T06:51:52.638Z,100.00
2018-10-19T06:52:52.725Z,99.97
2018-10-19T06:53:53.085Z,99.85
2018-10-19T06:54:53.206Z,99.72
2018-10-19T06:55:53.331Z,99.58
2018-10-19T06:56:53.418Z,99.29
2018-10-19T06:57:53.527Z,99.00
2018-10-19T06:58:53.894Z,98.75
2018-10-19T06:59:53.959Z,98.45
2018-10-19T07:00:54.024Z,98.27
2018-10-19T07:01:54.154Z,97.97
2018-10-19T07:02:54.181Z,97.55
2018-10-19T07:03:54.251Z,97.43
2018-10-19T07:04:54.412Z,97.04
2018-10-19T07:05:54.423Z,96.79
2018-10-19T07:06:54.519Z,96.63
2018-10-19T07:07:54.586Z,96.21
2018-10-19T07:08:54.483Z,95.87
2018-10-19T07:09:54.795Z,95.47
2018-10-19T07:10:55.135Z,95.17
2018-10-19T07:11:55.566Z,94.74
2018-10-19T07:12:55.872Z,94.28
2018-10-19T07:13:56.238Z,94.27
2018-10-19T07:14:56.688Z,93.88
2018-10-19T07:15:57.513Z,93.36
2018-10-19T07:16:57.615Z,92.93
2018-10-19T07:17:57.793Z,92.66
2018-10-19T07:18:58.407Z,92.34
2018-10-19T07:19:58.536Z,92.06
2018-10-19T07:20:58.973Z,91.56
2018-10-19T07:21:59.284Z,91.38
2018-10-19T07:22:59.679Z,90.74
2018-10-19T07:24:00.033Z,90.58
2018-10-19T07:25:00.365Z,90.47
2018-10-19T07:26:00.497Z,90.11
2018-10-19T07:27:00.473Z,90.11
2018-10-19T07:28:00.799Z,89.78
2018-10-19T07:29:01.202Z,89.43
2018-10-19T07:30:01.430Z,89.32
2018-10-19T07:31:02.037Z,88.93
2018-10-19T07:32:02.123Z,88.51
2018-10-19T07:33:02.167Z,87.89
2018-10-19T07:34:02.286Z,87.87
2018-10-19T07:35:02.343Z,87.60
2018-10-19T07:36:02.670Z,87.42
2018-10-19T07:37:02.874Z,87.07
2018-10-19T07:38:03.036Z,86.88
2018-10-19T07:39:03.099Z,86.69
2018-10-19T07:40:03.184Z,86.33
2018-10-19T07:41:03.596Z,86.18
2018-10-19T07:42:03.814Z,85.46
2018-10-19T07:43:03.949Z,85.45
2018-10-19T07:44:04.144Z,85.30
2018-10-19T07:45:04.252Z,85.27
2018-10-19T07:46:04.419Z,84.76
2018-10-19T07:47:04.647Z,84.59
2018-10-19T07:48:04.825Z,84.33
2018-10-19T07:49:04.905Z,84.17
2018-10-19T07:50:05.071Z,84.09
2018-10-19T07:51:05.249Z,83.94
2018-10-19T07:52:05.496Z,83.67
2018-10-19T07:53:05.720Z,83.29
2018-10-19T07:54:05.918Z,83.00
2018-10-19T07:55:06.013Z,82.51
2018-10-19T07:56:06.147Z,82.21
2018-10-19T07:57:06.417Z,81.92
2018-10-19T07:58:06.597Z,81.89
2018-10-19T07:59:06.726Z,82.01
2018-10-19T08:00:06.789Z,81.64
2018-10-19T08:01:07.177Z,81.13
2018-10-19T08:02:07.307Z,81.13
2018-10-19T08:03:07.309Z,80.71
2018-10-19T08:04:07.434Z,80.43
2018-10-19T08:05:07.596Z,80.35
2018-10-19T08:06:07.806Z,79.87
2018-10-19T08:07:08.026Z,79.94
2018-10-19T08:08:08.138Z,79.40
2018-10-19T08:09:08.269Z,78.81
2018-10-19T08:10:08.576Z,78.54
2018-10-19T08:11:08.688Z,78.21
2018-10-19T08:12:08.419Z,77.90
2018-10-19T08:13:08.962Z,76.92
2018-10-19T08:14:09.127Z,76.20
2018-10-19T08:15:09.331Z,75.52
2018-10-19T08:16:09.923Z,74.60
2018-10-19T08:17:09.736Z,73.69
2018-10-19T08:18:10.105Z,72.71
2018-10-19T08:19:10.386Z,72.09
2018-10-19T08:20:10.831Z,71.34
2018-10-19T08:21:11.022Z,70.83
2018-10-19T08:22:11.333Z,70.42
2018-10-19T08:23:11.755Z,70.21
2018-10-19T08:24:12.098Z,69.90
2018-10-19T08:25:12.645Z,70.09
2018-10-19T08:26:12.532Z,70.01
2018-10-19T08:27:12.814Z,69.86
2018-10-19T08:28:13.246Z,69.93
2018-10-19T08:29:13.789Z,69.30
2018-10-19T08:30:13.988Z,68.43
2018-10-19T08:31:14.325Z,67.88
2018-10-19T08:32:14.981Z,67.24
2018-10-19T08:33:14.766Z,66.87
2018-10-19T08:34:15.121Z,66.40
2018-10-19T08:35:15.630Z,66.19
2018-10-19T08:36:15.898Z,65.99
2018-10-19T08:37:16.209Z,66.08
2018-10-19T08:38:16.504Z,65.45
2018-10-19T08:39:16.804Z,65.55
2018-10-19T08:40:17.394Z,65.21
2018-10-19T08:41:17.370Z,64.74
2018-10-19T08:42:17.496Z,64.61
2018-10-19T08:43:17.990Z,64.18
2018-10-19T08:44:18.426Z,64.23
2018-10-19T08:45:19.026Z,63.74
2018-10-19T08:46:19.044Z,63.61
2018-10-19T08:47:19.316Z,63.04
2018-10-19T08:48:19.464Z,63.16
2018-10-19T08:49:19.636Z,63.13
2018-10-19T08:50:19.769Z,63.14
2018-10-19T08:51:22.650Z,63.07
2018-10-19T08:52:20.326Z,63.93
2018-10-19T08:53:20.680Z,63.43
2018-10-19T08:54:20.900Z,64.30
2018-10-19T08:55:21.206Z,64.76
2018-10-19T08:56:21.417Z,65.22
2018-10-19T08:57:21.503Z,65.18
2018-10-19T08:58:21.816Z,65.77
2018-10-19T08:59:21.756Z,65.64
2018-10-19T09:00:21.914Z,65.14
2018-10-19T09:01:21.981Z,65.22
2018-10-19T09:02:22.238Z,64.44
2018-10-19T09:03:22.349Z,63.81
2018-10-19T09:04:22.402Z,63.40
2018-10-19T09:05:22.487Z,62.94
2018-10-19T09:06:22.562Z,63.21
2018-10-19T09:07:22.711Z,62.98
2018-10-19T09:08:22.824Z,62.64
2018-10-19T09:09:22.896Z,62.85
2018-10-19T09:10:22.780Z,63.74
2018-10-19T09:11:23.489Z,64.87
2018-10-19T09:12:23.649Z,65.57
2018-10-19T09:13:23.991Z,65.67
2018-10-19T09:14:23.966Z,65.83
2018-10-19T09:15:24.199Z,65.86
2018-10-19T09:16:24.519Z,65.93
2018-10-19T09:17:24.804Z,65.91
2018-10-19T09:18:25.179Z,66.18
2018-10-19T09:19:25.428Z,66.26
2018-10-19T09:20:25.723Z,66.21
2018-10-19T09:21:26.184Z,66.06
2018-10-19T09:22:26.614Z,66.05
2018-10-19T09:23:26.951Z,66.15
2018-10-19T09:24:27.265Z,66.12
2018-10-19T09:25:27.608Z,66.02
2018-10-19T09:26:27.949Z,66.28
2018-10-19T09:27:28.571Z,66.15
2018-10-19T09:28:28.413Z,66.26
2018-10-19T09:29:28.883Z,66.26
2018-10-19T09:30:29.322Z,66.41
2018-10-19T09:31:29.144Z,66.55
2018-10-19T09:32:29.610Z,66.48
2018-10-19T09:33:29.931Z,66.60
2018-10-19T09:34:30.326Z,66.71
2018-10-19T09:35:30.719Z,66.74
2018-10-19T09:36:31.427Z,66.89
2018-10-19T09:37:31.298Z,67.04
2018-10-19T09:38:31.141Z,67.22
2018-10-19T09:39:31.479Z,67.27
2018-10-19T09:40:31.820Z,67.14
2018-10-19T09:41:32.165Z,67.08
2018-10-19T09:42:32.487Z,67.12
2018-10-19T09:43:32.808Z,67.12
2018-10-19T09:44:33.394Z,67.02
2018-10-19T09:45:33.619Z,66.93
2018-10-19T09:46:33.816Z,66.87
2018-10-19T09:47:34.503Z,66.61
2018-10-19T09:48:34.145Z,66.48
2018-10-19T09:49:34.451Z,66.37
2018-10-19T09:50:34.611Z,66.49
2018-10-19T09:51:34.822Z,66.39
2018-10-19T09:52:35.247Z,66.52
2018-10-19T09:53:35.539Z,66.45
2018-10-19T09:54:35.790Z,66.45
2018-10-19T09:55:35.876Z,66.55
2018-10-19T09:56:36.033Z,66.66
2018-10-19T09:57:36.153Z,66.69
2018-10-19T09:58:36.306Z,66.78
2018-10-19T09:59:36.474Z,66.81
2018-10-19T10:00:36.789Z,66.72
2018-10-19T10:01:37.019Z,66.60
2018-10-19T10:02:37.513Z,66.37
2018-10-19T10:03:37.931Z,66.25
2018-10-19T10:04:38.020Z,66.08
2018-10-19T10:05:38.136Z,65.94
2018-10-19T10:06:38.240Z,65.83
2018-10-19T10:07:38.337Z,65.58
2018-10-19T10:08:38.466Z,65.69
2018-10-19T10:09:38.585Z,65.60
2018-10-19T10:10:38.770Z,65.54
2018-10-19T10:11:38.982Z,65.53
2018-10-19T10:12:39.505Z,65.54
2018-10-19T10:13:39.440Z,65.49
2018-10-19T10:14:39.777Z,65.40
2018-10-19T10:15:40.053Z,65.26
2018-10-19T10:16:40.325Z,65.28
2018-10-19T10:17:40.803Z,65.25
2018-10-19T10:18:41.102Z,65.19
2018-10-19T10:19:41.469Z,65.29
2018-10-19T10:20:41.838Z,65.23
2018-10-19T10:21:41.999Z,65.01
2018-10-19T10:22:42.314Z,64.95
2018-10-19T10:23:42.908Z,64.94
2018-10-19T10:24:42.954Z,65.02
2018-10-19T10:25:43.251Z,65.14
2018-10-19T10:26:43.521Z,65.40
2018-10-19T10:27:43.961Z,65.31
2018-10-19T10:28:44.276Z,65.17
2018-10-19T10:29:44.704Z,65.19
2018-10-19T10:30:45.026Z,65.07
2018-10-19T10:31:45.337Z,65.18
2018-10-19T10:32:45.738Z,65.25
2018-10-19T10:33:46.031Z,65.08
2018-10-19T10:34:46.372Z,65.32
2018-10-19T10:35:46.704Z,65.02
2018-10-19T10:36:47.029Z,64.97
2018-10-19T10:37:47.354Z,64.78
2018-10-19T10:38:47.740Z,64.65
2018-10-19T10:39:48.079Z,64.48
2018-10-19T10:40:48.926Z,64.22
2018-10-19T10:41:49.148Z,64.09
2018-10-19T10:42:49.272Z,63.90
2018-10-19T10:43:49.443Z,63.67
2018-10-19T10:44:49.680Z,63.22
2018-10-19T10:45:49.967Z,62.77
2018-10-19T10:46:50.236Z,62.13
2018-10-19T10:47:50.395Z,61.77
2018-10-19T10:48:50.612Z,61.31
2018-10-19T10:49:50.833Z,60.83
2018-10-19T10:50:51.038Z,60.05
2018-10-19T10:51:51.299Z,59.92
2018-10-19T10:52:51.450Z,59.49
2018-10-19T10:53:51.604Z,58.99
2018-10-19T10:54:51.698Z,58.97
2018-10-19T10:55:51.567Z,58.79
2018-10-19T10:56:52.188Z,58.42
2018-10-19T10:57:52.303Z,58.64
2018-10-19T10:58:52.437Z,58.70
2018-10-19T10:59:52.541Z,58.28
2018-10-19T11:00:52.665Z,58.01
2018-10-19T11:01:52.784Z,58.06
2018-10-19T11:02:52.893Z,57.70
2018-10-19T11:03:53.081Z,57.42
2018-10-19T11:04:53.067Z,57.32
2018-10-19T11:05:53.199Z,57.50
2018-10-19T11:06:53.399Z,57.37
2018-10-19T11:07:53.252Z,56.98
2018-10-19T11:08:53.968Z,57.25
2018-10-19T11:09:54.036Z,57.33
2018-10-19T11:10:54.115Z,57.17
2018-10-19T11:11:54.134Z,57.17
2018-10-19T11:12:54.076Z,56.95
2018-10-19T11:13:54.350Z,57.04
2018-10-19T11:14:54.758Z,57.01
2018-10-19T11:15:55.260Z,56.97
2018-10-19T11:16:55.524Z,56.95
2018-10-19T11:17:56.160Z,56.88
2018-10-19T11:18:56.308Z,56.55
2018-10-19T11:19:56.226Z,56.39
2018-10-19T11:20:56.412Z,56.41
2018-10-19T11:21:56.891Z,56.25
2018-10-19T11:22:57.194Z,56.17
2018-10-19T11:23:57.661Z,55.90
2018-10-19T11:24:57.973Z,55.61
2018-10-19T11:25:58.227Z,55.25
2018-10-19T11:26:58.534Z,54.70
2018-10-19T11:27:58.969Z,54.32
2018-10-19T11:28:59.583Z,53.85
2018-10-19T11:29:59.418Z,53.31
2018-10-19T11:30:59.814Z,52.57
2018-10-19T11:31:59.726Z,52.79
2018-10-19T11:33:00.252Z,52.57
2018-10-19T11:34:00.561Z,52.56
2018-10-19T11:35:00.870Z,52.60
2018-10-19T11:36:00.848Z,52.75
2018-10-19T11:37:01.329Z,52.55
2018-10-19T11:38:01.580Z,52.59
2018-10-19T11:39:01.929Z,52.85
2018-10-19T11:40:02.666Z,53.02
2018-10-19T11:41:02.318Z,52.81
2018-10-19T11:42:02.807Z,52.67
2018-10-19T11:43:03.239Z,52.54
2018-10-19T11:44:03.982Z,52.56
2018-10-19T11:45:04.306Z,52.52
2018-10-19T11:46:04.502Z,52.67
2018-10-19T11:47:04.716Z,52.33
2018-10-19T11:48:04.864Z,52.30
2018-10-19T11:49:05.153Z,52.03
2018-10-19T11:50:05.462Z,51.85
2018-10-19T11:51:05.510Z,51.48
2018-10-19T11:52:05.805Z,51.28
2018-10-19T11:53:05.999Z,51.13
2018-10-19T11:54:06.140Z,50.78
2018-10-19T11:55:06.523Z,50.45
2018-10-19T11:56:06.462Z,50.01
2018-10-19T11:57:06.802Z,49.91
2018-10-19T11:58:07.083Z,49.75
2018-10-19T11:59:07.391Z,49.48
2018-10-19T12:00:07.643Z,49.17
2018-10-19T12:01:07.768Z,49.01
2018-10-19T12:02:07.833Z,48.44
2018-10-19T12:03:07.835Z,47.92
2018-10-19T12:04:08.041Z,47.57
2018-10-19T12:05:08.147Z,47.69
2018-10-19T12:06:08.259Z,47.31
2018-10-19T12:07:08.350Z,47.09
2018-10-19T12:08:08.837Z,47.26
2018-10-19T12:09:09.088Z,47.42
2018-10-19T12:10:09.638Z,47.22
2018-10-19T12:11:09.348Z,47.25
2018-10-19T12:12:09.751Z,47.04
2018-10-19T12:13:10.237Z,46.98
2018-10-19T12:14:10.463Z,46.30
2018-10-19T12:15:10.984Z,46.36
2018-10-19T12:16:10.866Z,46.25
2018-10-19T12:17:11.222Z,45.50
2018-10-19T12:18:11.424Z,45.34
2018-10-19T12:19:11.761Z,44.93
2018-10-19T12:20:12.220Z,44.89
2018-10-19T12:21:12.273Z,44.63
2018-10-19T12:22:12.689Z,44.44
2018-10-19T12:23:13.030Z,43.87
2018-10-19T12:24:13.307Z,43.66
2018-10-19T12:25:13.990Z,43.19
2018-10-19T12:26:14.218Z,43.01
2018-10-19T12:27:14.132Z,43.13
2018-10-19T12:28:14.459Z,43.22
2018-10-19T12:29:15.051Z,43.16
2018-10-19T12:30:15.107Z,42.98
2018-10-19T12:31:15.457Z,43.37
2018-10-19T12:32:15.740Z,43.72
2018-10-19T12:33:16.138Z,43.29
2018-10-19T12:34:16.414Z,43.04
2018-10-19T12:35:16.855Z,43.82
2018-10-19T12:36:16.853Z,43.46
2018-10-19T12:37:16.912Z,43.55
2018-10-19T12:38:16.863Z,43.40
2018-10-19T12:39:17.454Z,43.84
2018-10-19T12:40:18.094Z,44.13
2018-10-19T12:41:18.312Z,43.87
2018-10-19T12:42:18.480Z,43.70
2018-10-19T12:43:21.584Z,43.36
2018-10-19T12:44:18.925Z,42.80
2018-10-19T12:45:19.282Z,42.45
2018-10-19T12:46:19.247Z,42.02
2018-10-19T12:47:19.811Z,41.67
2018-10-19T12:48:19.813Z,41.52
2018-10-19T12:49:19.998Z,41.51
2018-10-19T12:50:20.439Z,41.56
2018-10-19T12:51:20.617Z,41.86
2018-10-19T12:52:20.817Z,41.50
2018-10-19T12:53:20.966Z,41.67
2018-10-19T12:54:21.341Z,41.76
2018-10-19T12:55:21.363Z,41.20
2018-10-19T12:56:21.548Z,40.85
2018-10-19T12:57:22.013Z,40.74